This demonstration page uses our WeatherBlox Daily Observations layout. Learn more.

Hourly Observations for June 22, 2017

Temp ( °F °C ) Dew Point ( °F °C ) Humidity (%) Winds ( mph kmh ) Pressure ( in mb ) Visibility ( mi km ) Precip ( " mm )
12:54 am 00:54 Clear 82 27.8 61 16.1 49 49 S 21 33 29.66 1005 10 16.0934 0 0
1:54 am 01:54 Clear 81 27.2 61 16.1 51 51 S 17 28 29.65 1004 10 16.0934 0 0
2:54 am 02:54 Clear 80 26.7 60 15.6 51 51 S 17 28 29.64 1004 10 16.0934 0 0
3:54 am 03:54 Clear 78 25.6 60 15.6 54 54 S 16 26 29.62 1003 10 16.0934 0 0
4:54 am 04:54 Clear 77 25 60 15.6 56 56 S 12 19 29.64 1004 10 16.0934 0 0
5:54 am 05:54 Clear 75 23.9 61 16.1 62 62 SSW 7 11 29.64 1004 10 16.0934 0 0
6:54 am 06:54 Sunny 73 22.8 63 17.2 71 71 S 8 13 29.63 1003 10 16.0934 0 0
7:54 am 07:54 Sunny 74 23.3 63 17.2 69 69 S 7 11 29.62 1003 10 16.0934 0 0
8:54 am 08:54 Sunny 78 25.6 63 17.2 60 60 SSW 13 20 29.62 1003 10 16.0934 0 0
9:54 am 09:54 Sunny 80 26.7 65 18.3 60 60 S 12 19 29.61 1003 10 16.0934 0 0
10:54 am 10:54 Sunny 83 28.3 66 18.9 57 57 S 13 20 29.6 1002 10 16.0934 0 0
11:54 am 11:54 Sunny 86 30 67 19.4 53 53 S 13 20 29.6 1002 10 16.0934 0 0
12:54 pm 12:54 Sunny 85 29.4 68 20 57 57 S 10 17 29.6 1002 10 16.0934 0 0
1:54 pm 13:54 Sunny 85 29.4 68 20 57 57 SSE 12 19 29.6 1002 10 16.0934 0 0
2:54 pm 14:54 Sunny 88 31.1 68 20 52 52 SSW 12 19 29.58 1002 10 16.0934 0 0
3:54 pm 15:54 Sunny 90 32.2 66 18.9 45 45 SSW 10 17 29.58 1002 10 16.0934 0 0
4:54 pm 16:54 Sunny 91 32.8 66 18.9 44 44 W 3 6 29.58 1002 10 16.0934 0 0
5:54 pm 17:54 Sunny 89 31.7 69 20.6 52 52 N 9 15 29.57 1001 10 16.0934 0 0
6:54 pm 18:54 Mostly Sunny 88 31.1 71 21.7 57 57 ENE 9 15 29.58 1002 10 16.0934 0 0
7:54 pm 19:54 Cloudy 86 30 70 21.1 59 59 ENE 8 13 29.6 1002 10 16.0934 0 0
8:54 pm 20:54 Mostly Cloudy 82 27.8 68 20 63 63 N 17 28 29.63 1003 10 16.0934 0 0
9:54 pm 21:54 Clear 80 26.7 64 17.8 58 58 N 18 30 29.66 1004 10 16.0934 0 0
10:54 pm 22:54 Cloudy 77 25 66 18.9 69 69 N 21 33 29.72 1006 10 16.0934 0 0
11:54 pm 23:54 Cloudy with Light Rain 74 23.3 65 18.3 74 74 N 18 30 29.76 1008 10 16.0934 0 0.0254

Powered by AerisWeather